sensor_id;sensor_type;location;lat;lon;timestamp;P1;durP1;ratioP1;P2;durP2;ratioP2
12312;SDS011;6220;53.580;9.758;2022-12-24T00:02:21;19.40;;;12.37;;
12312;SDS011;6220;53.580;9.758;2022-12-24T00:04:49;20.27;;;12.00;;
12312;SDS011;6220;53.580;9.758;2022-12-24T00:07:14;20.80;;;12.57;;
12312;SDS011;6220;53.580;9.758;2022-12-24T00:09:40;17.37;;;12.07;;
12312;SDS011;6220;53.580;9.758;2022-12-24T00:12:06;18.83;;;11.73;;
12312;SDS011;6220;53.580;9.758;2022-12-24T00:14:33;19.47;;;11.80;;
12312;SDS011;6220;53.580;9.758;2022-12-24T00:17:02;20.67;;;11.67;;
12312;SDS011;6220;53.580;9.758;2022-12-24T00:19:28;21.60;;;11.83;;
12312;SDS011;6220;53.580;9.758;2022-12-24T00:21:53;19.60;;;12.07;;
12312;SDS011;6220;53.580;9.758;2022-12-24T00:24:19;16.90;;;11.63;;
12312;SDS011;6220;53.580;9.758;2022-12-24T00:26:44;20.00;;;11.40;;
12312;SDS011;6220;53.580;9.758;2022-12-24T00:29:10;17.13;;;11.57;;
12312;SDS011;6220;53.580;9.758;2022-12-24T00:31:39;17.53;;;11.40;;
12312;SDS011;6220;53.580;9.758;2022-12-24T00:34:04;15.43;;;10.90;;
12312;SDS011;6220;53.580;9.758;2022-12-24T00:36:32;17.50;;;11.20;;
12312;SDS011;6220;53.580;9.758;2022-12-24T00:38:57;18.30;;;10.93;;
12312;SDS011;6220;53.580;9.758;2022-12-24T00:41:22;22.30;;;11.20;;
12312;SDS011;6220;53.580;9.758;2022-12-24T00:43:52;18.80;;;11.40;;
12312;SDS011;6220;53.580;9.758;2022-12-24T00:46:18;19.33;;;11.47;;
12312;SDS011;6220;53.580;9.758;2022-12-24T00:48:44;19.60;;;11.77;;
12312;SDS011;6220;53.580;9.758;2022-12-24T00:51:09;16.57;;;10.67;;
12312;SDS011;6220;53.580;9.758;2022-12-24T00:53:35;18.07;;;10.33;;
12312;SDS011;6220;53.580;9.758;2022-12-24T00:56:00;20.60;;;11.03;;
12312;SDS011;6220;53.580;9.758;2022-12-24T00:58:26;18.90;;;11.60;;
12312;SDS011;6220;53.580;9.758;2022-12-24T01:00:52;21.13;;;11.13;;
12312;SDS011;6220;53.580;9.758;2022-12-24T01:03:17;15.47;;;10.07;;
12312;SDS011;6220;53.580;9.758;2022-12-24T01:05:43;19.73;;;11.33;;
12312;SDS011;6220;53.580;9.758;2022-12-24T01:08:08;19.93;;;11.93;;
12312;SDS011;6220;53.580;9.758;2022-12-24T01:10:35;20.60;;;11.50;;
12312;SDS011;6220;53.580;9.758;2022-12-24T01:13:02;18.30;;;10.40;;
12312;SDS011;6220;53.580;9.758;2022-12-24T01:15:28;16.80;;;10.53;;
12312;SDS011;6220;53.580;9.758;2022-12-24T01:17:54;21.00;;;11.03;;
12312;SDS011;6220;53.580;9.758;2022-12-24T01:20:19;21.27;;;11.77;;
12312;SDS011;6220;53.580;9.758;2022-12-24T01:22:46;16.93;;;10.57;;
12312;SDS011;6220;53.580;9.758;2022-12-24T01:25:15;16.97;;;10.20;;
12312;SDS011;6220;53.580;9.758;2022-12-24T01:27:41;19.47;;;11.20;;
12312;SDS011;6220;53.580;9.758;2022-12-24T01:30:08;21.83;;;11.63;;
12312;SDS011;6220;53.580;9.758;2022-12-24T01:32:39;16.37;;;10.73;;
12312;SDS011;6220;53.580;9.758;2022-12-24T01:35:06;17.60;;;11.27;;
12312;SDS011;6220;53.580;9.758;2022-12-24T01:37:33;19.80;;;11.30;;
12312;SDS011;6220;53.580;9.758;2022-12-24T01:39:58;21.63;;;11.23;;
12312;SDS011;6220;53.580;9.758;2022-12-24T01:42:44;19.80;;;11.40;;
12312;SDS011;6220;53.580;9.758;2022-12-24T01:46:13;17.13;;;10.83;;
12312;SDS011;6220;53.580;9.758;2022-12-24T01:48:48;19.37;;;10.83;;
12312;SDS011;6220;53.580;9.758;2022-12-24T01:54:00;20.67;;;11.63;;
12312;SDS011;6220;53.580;9.758;2022-12-24T01:56:29;19.00;;;11.43;;
12312;SDS011;6220;53.580;9.758;2022-12-24T01:58:56;19.83;;;10.73;;
12312;SDS011;6220;53.580;9.758;2022-12-24T02:01:25;18.80;;;11.90;;
12312;SDS011;6220;53.580;9.758;2022-12-24T02:03:50;18.40;;;11.07;;
12312;SDS011;6220;53.580;9.758;2022-12-24T02:06:16;17.17;;;11.50;;
12312;SDS011;6220;53.580;9.758;2022-12-24T02:08:43;19.70;;;11.70;;
12312;SDS011;6220;53.580;9.758;2022-12-24T02:11:09;17.27;;;11.37;;
12312;SDS011;6220;53.580;9.758;2022-12-24T02:13:43;18.30;;;11.40;;
12312;SDS011;6220;53.580;9.758;2022-12-24T02:22:06;21.73;;;12.53;;
12312;SDS011;6220;53.580;9.758;2022-12-24T02:27:25;17.27;;;10.37;;
12312;SDS011;6220;53.580;9.758;2022-12-24T02:35:53;17.97;;;11.60;;
12312;SDS011;6220;53.580;9.758;2022-12-24T02:38:26;16.70;;;11.70;;
12312;SDS011;6220;53.580;9.758;2022-12-24T02:41:24;18.90;;;12.30;;
12312;SDS011;6220;53.580;9.758;2022-12-24T02:43:52;21.90;;;12.70;;
12312;SDS011;6220;53.580;9.758;2022-12-24T02:46:20;18.57;;;11.83;;
12312;SDS011;6220;53.580;9.758;2022-12-24T02:48:48;18.50;;;11.80;;
12312;SDS011;6220;53.580;9.758;2022-12-24T02:51:15;18.20;;;11.83;;
12312;SDS011;6220;53.580;9.758;2022-12-24T02:53:41;18.47;;;12.00;;
12312;SDS011;6220;53.580;9.758;2022-12-24T02:56:13;18.07;;;11.47;;
12312;SDS011;6220;53.580;9.758;2022-12-24T02:59:23;19.13;;;11.83;;
12312;SDS011;6220;53.580;9.758;2022-12-24T03:07:28;19.37;;;12.03;;
12312;SDS011;6220;53.580;9.758;2022-12-24T03:10:40;17.63;;;12.47;;
12312;SDS011;6220;53.580;9.758;2022-12-24T03:13:13;19.07;;;12.87;;
12312;SDS011;6220;53.580;9.758;2022-12-24T03:15:39;17.73;;;12.10;;
12312;SDS011;6220;53.580;9.758;2022-12-24T03:18:05;17.80;;;12.27;;
12312;SDS011;6220;53.580;9.758;2022-12-24T03:20:34;17.10;;;11.53;;
12312;SDS011;6220;53.580;9.758;2022-12-24T03:23:04;18.10;;;11.97;;
12312;SDS011;6220;53.580;9.758;2022-12-24T03:25:30;18.00;;;11.83;;
12312;SDS011;6220;53.580;9.758;2022-12-24T03:27:58;17.20;;;11.77;;
12312;SDS011;6220;53.580;9.758;2022-12-24T03:30:27;18.20;;;11.23;;
12312;SDS011;6220;53.580;9.758;2022-12-24T03:32:53;18.13;;;11.87;;
12312;SDS011;6220;53.580;9.758;2022-12-24T03:35:18;18.13;;;11.70;;
12312;SDS011;6220;53.580;9.758;2022-12-24T03:37:46;16.60;;;10.77;;
12312;SDS011;6220;53.580;9.758;2022-12-24T03:40:12;21.00;;;12.20;;
12312;SDS011;6220;53.580;9.758;2022-12-24T03:42:38;18.07;;;11.87;;
12312;SDS011;6220;53.580;9.758;2022-12-24T03:45:03;17.63;;;11.37;;
12312;SDS011;6220;53.580;9.758;2022-12-24T03:47:31;17.27;;;10.77;;
12312;SDS011;6220;53.580;9.758;2022-12-24T03:49:56;18.23;;;11.87;;
12312;SDS011;6220;53.580;9.758;2022-12-24T03:52:21;21.53;;;11.93;;
12312;SDS011;6220;53.580;9.758;2022-12-24T03:54:47;19.00;;;12.13;;
12312;SDS011;6220;53.580;9.758;2022-12-24T03:57:13;17.63;;;11.20;;
12312;SDS011;6220;53.580;9.758;2022-12-24T03:59:41;16.43;;;11.13;;
12312;SDS011;6220;53.580;9.758;2022-12-24T04:02:06;19.43;;;11.43;;
12312;SDS011;6220;53.580;9.758;2022-12-24T04:04:32;15.90;;;11.00;;
12312;SDS011;6220;53.580;9.758;2022-12-24T04:07:00;16.57;;;11.53;;
12312;SDS011;6220;53.580;9.758;2022-12-24T04:09:27;14.70;;;10.00;;
12312;SDS011;6220;53.580;9.758;2022-12-24T04:11:54;14.40;;;10.33;;
12312;SDS011;6220;53.580;9.758;2022-12-24T04:14:19;17.30;;;11.10;;
12312;SDS011;6220;53.580;9.758;2022-12-24T04:16:46;15.83;;;10.37;;
12312;SDS011;6220;53.580;9.758;2022-12-24T04:19:11;16.13;;;11.13;;
12312;SDS011;6220;53.580;9.758;2022-12-24T04:21:37;15.97;;;11.73;;
12312;SDS011;6220;53.580;9.758;2022-12-24T04:24:03;14.43;;;10.17;;
12312;SDS011;6220;53.580;9.758;2022-12-24T04:26:30;16.67;;;9.93;;
12312;SDS011;6220;53.580;9.758;2022-12-24T04:28:55;14.87;;;10.87;;
12312;SDS011;6220;53.580;9.758;2022-12-24T04:31:20;15.03;;;11.07;;
12312;SDS011;6220;53.580;9.758;2022-12-24T04:33:46;14.43;;;9.73;;
12312;SDS011;6220;53.580;9.758;2022-12-24T04:36:12;15.10;;;9.80;;
12312;SDS011;6220;53.580;9.758;2022-12-24T04:38:40;13.27;;;9.60;;
12312;SDS011;6220;53.580;9.758;2022-12-24T04:41:07;15.83;;;10.57;;
12312;SDS011;6220;53.580;9.758;2022-12-24T04:43:35;14.83;;;10.40;;
12312;SDS011;6220;53.580;9.758;2022-12-24T04:46:05;13.40;;;9.97;;
12312;SDS011;6220;53.580;9.758;2022-12-24T04:48:31;12.50;;;9.00;;
12312;SDS011;6220;53.580;9.758;2022-12-24T04:50:59;13.83;;;9.97;;
12312;SDS011;6220;53.580;9.758;2022-12-24T04:53:27;14.90;;;9.97;;
12312;SDS011;6220;53.580;9.758;2022-12-24T04:55:53;13.90;;;9.57;;
12312;SDS011;6220;53.580;9.758;2022-12-24T04:58:18;13.63;;;9.37;;
12312;SDS011;6220;53.580;9.758;2022-12-24T05:00:44;14.77;;;9.57;;
12312;SDS011;6220;53.580;9.758;2022-12-24T05:03:09;12.80;;;9.10;;
12312;SDS011;6220;53.580;9.758;2022-12-24T05:05:34;12.63;;;9.63;;
12312;SDS011;6220;53.580;9.758;2022-12-24T05:08:01;12.90;;;9.27;;
12312;SDS011;6220;53.580;9.758;2022-12-24T05:10:26;14.50;;;9.53;;
12312;SDS011;6220;53.580;9.758;2022-12-24T05:12:52;13.33;;;8.73;;
12312;SDS011;6220;53.580;9.758;2022-12-24T05:15:19;14.37;;;9.73;;
12312;SDS011;6220;53.580;9.758;2022-12-24T05:17:45;14.13;;;8.97;;
12312;SDS011;6220;53.580;9.758;2022-12-24T05:20:11;13.17;;;9.40;;
12312;SDS011;6220;53.580;9.758;2022-12-24T05:22:38;12.37;;;8.27;;
12312;SDS011;6220;53.580;9.758;2022-12-24T05:25:31;12.77;;;9.10;;
12312;SDS011;6220;53.580;9.758;2022-12-24T05:28:18;13.73;;;8.23;;
12312;SDS011;6220;53.580;9.758;2022-12-24T05:30:43;13.47;;;8.87;;
12312;SDS011;6220;53.580;9.758;2022-12-24T05:33:08;12.73;;;8.37;;
12312;SDS011;6220;53.580;9.758;2022-12-24T05:35:34;12.80;;;8.63;;
12312;SDS011;6220;53.580;9.758;2022-12-24T05:38:01;11.43;;;7.90;;
12312;SDS011;6220;53.580;9.758;2022-12-24T05:40:26;11.63;;;7.77;;
12312;SDS011;6220;53.580;9.758;2022-12-24T05:42:52;13.13;;;8.53;;
12312;SDS011;6220;53.580;9.758;2022-12-24T05:45:17;12.53;;;7.50;;
12312;SDS011;6220;53.580;9.758;2022-12-24T05:47:43;10.87;;;8.23;;
12312;SDS011;6220;53.580;9.758;2022-12-24T05:50:08;12.30;;;8.57;;
12312;SDS011;6220;53.580;9.758;2022-12-24T05:52:35;12.27;;;8.20;;
12312;SDS011;6220;53.580;9.758;2022-12-24T05:55:00;9.80;;;7.67;;
12312;SDS011;6220;53.580;9.758;2022-12-24T05:57:26;12.23;;;8.10;;
12312;SDS011;6220;53.580;9.758;2022-12-24T05:59:52;11.60;;;8.13;;
12312;SDS011;6220;53.580;9.758;2022-12-24T06:02:17;12.93;;;8.47;;
12312;SDS011;6220;53.580;9.758;2022-12-24T06:04:43;12.43;;;8.03;;
12312;SDS011;6220;53.580;9.758;2022-12-24T06:07:08;11.43;;;7.30;;
12312;SDS011;6220;53.580;9.758;2022-12-24T06:09:33;9.83;;;7.00;;
12312;SDS011;6220;53.580;9.758;2022-12-24T06:11:59;11.37;;;7.63;;
12312;SDS011;6220;53.580;9.758;2022-12-24T06:14:25;9.53;;;7.23;;
12312;SDS011;6220;53.580;9.758;2022-12-24T06:16:51;10.27;;;7.37;;
12312;SDS011;6220;53.580;9.758;2022-12-24T06:19:16;10.10;;;7.33;;
12312;SDS011;6220;53.580;9.758;2022-12-24T06:21:43;10.77;;;7.60;;
12312;SDS011;6220;53.580;9.758;2022-12-24T06:24:08;9.33;;;7.87;;
12312;SDS011;6220;53.580;9.758;2022-12-24T06:26:34;10.67;;;7.13;;
12312;SDS011;6220;53.580;9.758;2022-12-24T06:29:00;9.00;;;6.80;;
12312;SDS011;6220;53.580;9.758;2022-12-24T06:31:26;8.07;;;7.00;;
12312;SDS011;6220;53.580;9.758;2022-12-24T06:33:51;10.77;;;7.33;;
12312;SDS011;6220;53.580;9.758;2022-12-24T06:36:20;8.37;;;6.60;;
12312;SDS011;6220;53.580;9.758;2022-12-24T06:38:49;9.67;;;6.90;;
12312;SDS011;6220;53.580;9.758;2022-12-24T06:41:16;9.80;;;6.70;;
12312;SDS011;6220;53.580;9.758;2022-12-24T06:43:42;9.17;;;7.13;;
12312;SDS011;6220;53.580;9.758;2022-12-24T06:46:13;9.57;;;7.23;;
12312;SDS011;6220;53.580;9.758;2022-12-24T06:48:39;10.53;;;7.40;;
12312;SDS011;6220;53.580;9.758;2022-12-24T06:51:05;9.33;;;7.07;;
12312;SDS011;6220;53.580;9.758;2022-12-24T06:53:31;9.80;;;7.53;;
12312;SDS011;6220;53.580;9.758;2022-12-24T06:56:08;10.50;;;6.43;;
12312;SDS011;6220;53.580;9.758;2022-12-24T06:58:36;8.43;;;6.63;;
12312;SDS011;6220;53.580;9.758;2022-12-24T07:01:02;10.23;;;7.27;;
12312;SDS011;6220;53.580;9.758;2022-12-24T07:03:30;10.30;;;7.57;;
12312;SDS011;6220;53.580;9.758;2022-12-24T07:05:57;9.27;;;7.27;;
12312;SDS011;6220;53.580;9.758;2022-12-24T07:08:26;9.37;;;6.90;;
12312;SDS011;6220;53.580;9.758;2022-12-24T07:10:51;9.60;;;7.67;;
12312;SDS011;6220;53.580;9.758;2022-12-24T07:13:18;10.17;;;7.43;;
12312;SDS011;6220;53.580;9.758;2022-12-24T07:15:43;8.93;;;7.00;;
12312;SDS011;6220;53.580;9.758;2022-12-24T07:18:09;9.57;;;7.40;;
12312;SDS011;6220;53.580;9.758;2022-12-24T07:20:34;9.33;;;7.53;;
12312;SDS011;6220;53.580;9.758;2022-12-24T07:22:59;10.23;;;6.87;;
12312;SDS011;6220;53.580;9.758;2022-12-24T07:25:25;10.33;;;7.20;;
12312;SDS011;6220;53.580;9.758;2022-12-24T07:27:51;9.40;;;7.30;;
12312;SDS011;6220;53.580;9.758;2022-12-24T07:30:17;16.20;;;11.63;;
12312;SDS011;6220;53.580;9.758;2022-12-24T07:32:42;10.07;;;6.87;;
12312;SDS011;6220;53.580;9.758;2022-12-24T07:35:08;10.43;;;6.63;;
12312;SDS011;6220;53.580;9.758;2022-12-24T07:37:33;9.10;;;6.67;;
12312;SDS011;6220;53.580;9.758;2022-12-24T07:39:59;7.97;;;6.07;;
12312;SDS011;6220;53.580;9.758;2022-12-24T07:42:24;8.83;;;6.60;;
12312;SDS011;6220;53.580;9.758;2022-12-24T07:44:50;9.63;;;6.43;;
12312;SDS011;6220;53.580;9.758;2022-12-24T07:47:16;7.73;;;6.20;;
12312;SDS011;6220;53.580;9.758;2022-12-24T07:49:41;8.50;;;5.97;;
12312;SDS011;6220;53.580;9.758;2022-12-24T07:52:07;7.33;;;5.60;;
12312;SDS011;6220;53.580;9.758;2022-12-24T07:54:33;6.70;;;5.63;;
12312;SDS011;6220;53.580;9.758;2022-12-24T07:57:00;8.43;;;5.93;;
12312;SDS011;6220;53.580;9.758;2022-12-24T07:59:28;6.13;;;5.03;;
12312;SDS011;6220;53.580;9.758;2022-12-24T08:01:53;9.13;;;7.00;;
12312;SDS011;6220;53.580;9.758;2022-12-24T08:04:19;7.53;;;5.57;;
12312;SDS011;6220;53.580;9.758;2022-12-24T08:06:44;7.57;;;6.20;;
12312;SDS011;6220;53.580;9.758;2022-12-24T08:09:09;6.67;;;5.13;;
12312;SDS011;6220;53.580;9.758;2022-12-24T08:11:35;5.83;;;4.93;;
12312;SDS011;6220;53.580;9.758;2022-12-24T08:14:00;6.97;;;4.83;;
12312;SDS011;6220;53.580;9.758;2022-12-24T08:16:26;8.20;;;5.53;;
12312;SDS011;6220;53.580;9.758;2022-12-24T08:18:51;5.77;;;4.83;;
12312;SDS011;6220;53.580;9.758;2022-12-24T08:21:16;8.47;;;5.60;;
12312;SDS011;6220;53.580;9.758;2022-12-24T08:23:42;6.33;;;4.73;;
12312;SDS011;6220;53.580;9.758;2022-12-24T08:26:09;5.73;;;4.77;;
12312;SDS011;6220;53.580;9.758;2022-12-24T08:28:34;4.83;;;4.10;;
12312;SDS011;6220;53.580;9.758;2022-12-24T08:31:00;5.17;;;4.57;;
12312;SDS011;6220;53.580;9.758;2022-12-24T08:33:26;5.87;;;4.83;;
12312;SDS011;6220;53.580;9.758;2022-12-24T08:35:52;5.30;;;4.70;;
12312;SDS011;6220;53.580;9.758;2022-12-24T08:38:18;5.17;;;4.47;;
12312;SDS011;6220;53.580;9.758;2022-12-24T08:40:44;6.90;;;4.13;;
12312;SDS011;6220;53.580;9.758;2022-12-24T08:43:12;5.23;;;3.83;;
12312;SDS011;6220;53.580;9.758;2022-12-24T08:45:38;4.23;;;3.53;;
12312;SDS011;6220;53.580;9.758;2022-12-24T08:48:04;4.87;;;4.00;;
12312;SDS011;6220;53.580;9.758;2022-12-24T08:50:32;5.77;;;4.07;;
12312;SDS011;6220;53.580;9.758;2022-12-24T08:52:57;6.33;;;4.40;;
12312;SDS011;6220;53.580;9.758;2022-12-24T08:55:24;5.40;;;4.63;;
12312;SDS011;6220;53.580;9.758;2022-12-24T08:57:49;4.60;;;4.10;;
12312;SDS011;6220;53.580;9.758;2022-12-24T09:00:15;5.17;;;4.33;;
12312;SDS011;6220;53.580;9.758;2022-12-24T09:02:42;5.40;;;4.37;;
12312;SDS011;6220;53.580;9.758;2022-12-24T09:05:07;6.60;;;5.30;;
12312;SDS011;6220;53.580;9.758;2022-12-24T09:07:34;4.93;;;4.27;;
12312;SDS011;6220;53.580;9.758;2022-12-24T09:09:59;6.27;;;5.33;;
12312;SDS011;6220;53.580;9.758;2022-12-24T09:12:24;6.37;;;4.37;;
12312;SDS011;6220;53.580;9.758;2022-12-24T09:14:51;6.87;;;5.17;;
12312;SDS011;6220;53.580;9.758;2022-12-24T09:17:18;6.73;;;5.23;;
12312;SDS011;6220;53.580;9.758;2022-12-24T09:19:43;6.27;;;5.13;;
12312;SDS011;6220;53.580;9.758;2022-12-24T09:22:10;7.53;;;5.17;;
12312;SDS011;6220;53.580;9.758;2022-12-24T09:24:36;6.43;;;5.00;;
12312;SDS011;6220;53.580;9.758;2022-12-24T09:27:01;10.47;;;5.93;;
12312;SDS011;6220;53.580;9.758;2022-12-24T09:29:28;7.70;;;5.10;;
12312;SDS011;6220;53.580;9.758;2022-12-24T09:31:53;6.57;;;5.00;;
12312;SDS011;6220;53.580;9.758;2022-12-24T09:34:20;6.27;;;5.20;;
12312;SDS011;6220;53.580;9.758;2022-12-24T09:36:45;8.37;;;5.60;;
12312;SDS011;6220;53.580;9.758;2022-12-24T09:39:11;6.00;;;5.00;;
12312;SDS011;6220;53.580;9.758;2022-12-24T09:44:30;6.53;;;5.27;;
12312;SDS011;6220;53.580;9.758;2022-12-24T09:47:07;5.90;;;5.03;;
12312;SDS011;6220;53.580;9.758;2022-12-24T09:49:55;5.83;;;4.93;;
12312;SDS011;6220;53.580;9.758;2022-12-24T09:52:26;6.60;;;5.30;;
12312;SDS011;6220;53.580;9.758;2022-12-24T09:57:49;7.43;;;5.73;;
12312;SDS011;6220;53.580;9.758;2022-12-24T10:02:55;7.73;;;6.20;;
12312;SDS011;6220;53.580;9.758;2022-12-24T10:08:00;6.27;;;5.23;;
12312;SDS011;6220;53.580;9.758;2022-12-24T10:10:51;5.83;;;4.93;;
12312;SDS011;6220;53.580;9.758;2022-12-24T10:13:22;6.50;;;5.37;;
12312;SDS011;6220;53.580;9.758;2022-12-24T10:19:04;6.80;;;5.03;;
12312;SDS011;6220;53.580;9.758;2022-12-24T10:24:12;7.60;;;5.80;;
12312;SDS011;6220;53.580;9.758;2022-12-24T10:26:56;7.63;;;5.67;;
12312;SDS011;6220;53.580;9.758;2022-12-24T10:29:29;6.30;;;5.50;;
12312;SDS011;6220;53.580;9.758;2022-12-24T10:34:32;9.90;;;5.63;;
12312;SDS011;6220;53.580;9.758;2022-12-24T10:37:00;6.90;;;5.60;;
12312;SDS011;6220;53.580;9.758;2022-12-24T10:39:28;7.43;;;5.70;;
12312;SDS011;6220;53.580;9.758;2022-12-24T10:41:54;6.57;;;5.53;;
12312;SDS011;6220;53.580;9.758;2022-12-24T10:44:29;7.13;;;5.40;;
12312;SDS011;6220;53.580;9.758;2022-12-24T10:46:56;7.27;;;5.60;;
12312;SDS011;6220;53.580;9.758;2022-12-24T10:49:28;8.00;;;5.70;;
12312;SDS011;6220;53.580;9.758;2022-12-24T10:51:58;8.97;;;6.70;;
12312;SDS011;6220;53.580;9.758;2022-12-24T10:54:26;9.87;;;6.07;;
12312;SDS011;6220;53.580;9.758;2022-12-24T10:56:56;8.23;;;6.33;;
12312;SDS011;6220;53.580;9.758;2022-12-24T10:59:26;9.03;;;6.17;;
12312;SDS011;6220;53.580;9.758;2022-12-24T11:01:54;6.77;;;5.77;;
12312;SDS011;6220;53.580;9.758;2022-12-24T11:04:22;8.60;;;6.30;;
12312;SDS011;6220;53.580;9.758;2022-12-24T11:06:56;7.93;;;6.57;;
12312;SDS011;6220;53.580;9.758;2022-12-24T11:09:37;9.80;;;6.60;;
12312;SDS011;6220;53.580;9.758;2022-12-24T11:12:18;10.50;;;6.47;;
12312;SDS011;6220;53.580;9.758;2022-12-24T11:14:46;10.70;;;7.00;;
12312;SDS011;6220;53.580;9.758;2022-12-24T11:17:21;8.90;;;6.93;;
12312;SDS011;6220;53.580;9.758;2022-12-24T11:19:47;11.30;;;7.23;;
12312;SDS011;6220;53.580;9.758;2022-12-24T11:22:18;9.43;;;7.53;;
12312;SDS011;6220;53.580;9.758;2022-12-24T11:24:52;15.67;;;7.87;;
12312;SDS011;6220;53.580;9.758;2022-12-24T11:27:32;13.93;;;9.20;;
12312;SDS011;6220;53.580;9.758;2022-12-24T11:32:40;10.93;;;8.13;;
12312;SDS011;6220;53.580;9.758;2022-12-24T11:35:20;11.63;;;9.37;;
12312;SDS011;6220;53.580;9.758;2022-12-24T11:40:27;11.70;;;8.60;;
12312;SDS011;6220;53.580;9.758;2022-12-24T11:43:01;14.50;;;8.83;;
12312;SDS011;6220;53.580;9.758;2022-12-24T11:45:28;14.53;;;8.80;;
12312;SDS011;6220;53.580;9.758;2022-12-24T11:47:56;12.87;;;8.90;;
12312;SDS011;6220;53.580;9.758;2022-12-24T11:50:29;10.80;;;8.33;;
12312;SDS011;6220;53.580;9.758;2022-12-24T11:52:58;12.60;;;8.33;;
12312;SDS011;6220;53.580;9.758;2022-12-24T11:55:44;10.50;;;8.20;;
12312;SDS011;6220;53.580;9.758;2022-12-24T11:58:24;14.83;;;8.67;;
12312;SDS011;6220;53.580;9.758;2022-12-24T12:01:17;12.60;;;8.47;;
12312;SDS011;6220;53.580;9.758;2022-12-24T12:03:50;12.73;;;8.20;;
12312;SDS011;6220;53.580;9.758;2022-12-24T12:06:36;13.23;;;8.43;;
12312;SDS011;6220;53.580;9.758;2022-12-24T12:09:11;14.37;;;8.97;;
12312;SDS011;6220;53.580;9.758;2022-12-24T12:11:39;16.77;;;8.53;;
12312;SDS011;6220;53.580;9.758;2022-12-24T12:14:07;11.33;;;8.23;;
12312;SDS011;6220;53.580;9.758;2022-12-24T12:16:38;14.30;;;8.57;;
12312;SDS011;6220;53.580;9.758;2022-12-24T12:19:29;14.40;;;9.13;;
12312;SDS011;6220;53.580;9.758;2022-12-24T12:21:58;14.33;;;8.47;;
12312;SDS011;6220;53.580;9.758;2022-12-24T12:24:26;13.10;;;8.57;;
12312;SDS011;6220;53.580;9.758;2022-12-24T12:26:56;12.73;;;8.57;;
12312;SDS011;6220;53.580;9.758;2022-12-24T12:29:29;14.07;;;8.67;;
12312;SDS011;6220;53.580;9.758;2022-12-24T12:32:05;13.43;;;7.83;;
12312;SDS011;6220;53.580;9.758;2022-12-24T12:34:34;16.07;;;11.63;;
12312;SDS011;6220;53.580;9.758;2022-12-24T12:39:58;14.63;;;9.20;;
12312;SDS011;6220;53.580;9.758;2022-12-24T12:42:28;19.07;;;10.20;;
12312;SDS011;6220;53.580;9.758;2022-12-24T12:47:51;16.47;;;10.13;;
12312;SDS011;6220;53.580;9.758;2022-12-24T12:50:43;13.23;;;9.97;;
12312;SDS011;6220;53.580;9.758;2022-12-24T12:56:06;14.53;;;9.07;;
12312;SDS011;6220;53.580;9.758;2022-12-24T12:58:38;15.63;;;8.57;;
12312;SDS011;6220;53.580;9.758;2022-12-24T13:01:20;19.77;;;9.10;;
12312;SDS011;6220;53.580;9.758;2022-12-24T13:06:47;19.43;;;10.13;;
12312;SDS011;6220;53.580;9.758;2022-12-24T13:09:32;14.47;;;8.30;;
12312;SDS011;6220;53.580;9.758;2022-12-24T13:15:40;14.23;;;8.47;;
12312;SDS011;6220;53.580;9.758;2022-12-24T13:20:49;18.67;;;9.23;;
12312;SDS011;6220;53.580;9.758;2022-12-24T13:23:18;17.00;;;9.50;;
12312;SDS011;6220;53.580;9.758;2022-12-24T13:25:46;19.27;;;9.60;;
12312;SDS011;6220;53.580;9.758;2022-12-24T13:28:34;20.43;;;10.13;;
12312;SDS011;6220;53.580;9.758;2022-12-24T13:36:03;22.40;;;10.27;;
12312;SDS011;6220;53.580;9.758;2022-12-24T13:38:31;21.50;;;11.60;;
12312;SDS011;6220;53.580;9.758;2022-12-24T13:46:49;22.03;;;10.67;;
12312;SDS011;6220;53.580;9.758;2022-12-24T13:49:19;23.00;;;12.30;;
12312;SDS011;6220;53.580;9.758;2022-12-24T13:51:49;26.00;;;10.33;;
12312;SDS011;6220;53.580;9.758;2022-12-24T13:54:16;26.67;;;9.77;;
12312;SDS011;6220;53.580;9.758;2022-12-24T13:56:44;25.83;;;9.80;;
12312;SDS011;6220;53.580;9.758;2022-12-24T13:59:16;27.17;;;9.37;;
12312;SDS011;6220;53.580;9.758;2022-12-24T14:01:45;20.90;;;9.03;;
12312;SDS011;6220;53.580;9.758;2022-12-24T14:04:20;38.93;;;16.27;;
12312;SDS011;6220;53.580;9.758;2022-12-24T14:06:48;22.20;;;10.57;;
12312;SDS011;6220;53.580;9.758;2022-12-24T14:09:17;23.87;;;8.47;;
12312;SDS011;6220;53.580;9.758;2022-12-24T14:16:54;22.47;;;7.60;;
12312;SDS011;6220;53.580;9.758;2022-12-24T14:19:22;24.30;;;7.30;;
12312;SDS011;6220;53.580;9.758;2022-12-24T14:24:57;23.80;;;7.70;;
12312;SDS011;6220;53.580;9.758;2022-12-24T14:27:38;22.67;;;7.43;;
12312;SDS011;6220;53.580;9.758;2022-12-24T14:32:44;27.00;;;8.10;;
12312;SDS011;6220;53.580;9.758;2022-12-24T14:35:34;27.93;;;8.97;;
12312;SDS011;6220;53.580;9.758;2022-12-24T14:38:14;17.43;;;8.00;;
12312;SDS011;6220;53.580;9.758;2022-12-24T14:40:59;28.47;;;8.57;;
12312;SDS011;6220;53.580;9.758;2022-12-24T14:43:58;26.63;;;9.20;;
12312;SDS011;6220;53.580;9.758;2022-12-24T14:46:47;21.63;;;9.07;;
12312;SDS011;6220;53.580;9.758;2022-12-24T14:54:46;26.07;;;11.80;;
12312;SDS011;6220;53.580;9.758;2022-12-24T14:57:19;29.37;;;12.63;;
12312;SDS011;6220;53.580;9.758;2022-12-24T14:59:48;26.50;;;11.30;;
12312;SDS011;6220;53.580;9.758;2022-12-24T15:05:09;30.97;;;15.23;;
12312;SDS011;6220;53.580;9.758;2022-12-24T15:07:41;26.03;;;13.07;;
12312;SDS011;6220;53.580;9.758;2022-12-24T15:10:22;25.00;;;11.23;;
12312;SDS011;6220;53.580;9.758;2022-12-24T15:12:57;28.00;;;10.03;;
12312;SDS011;6220;53.580;9.758;2022-12-24T15:15:26;28.03;;;10.37;;
12312;SDS011;6220;53.580;9.758;2022-12-24T15:17:52;29.77;;;9.23;;
12312;SDS011;6220;53.580;9.758;2022-12-24T15:20:19;22.20;;;8.87;;
12312;SDS011;6220;53.580;9.758;2022-12-24T15:22:46;26.57;;;9.50;;
12312;SDS011;6220;53.580;9.758;2022-12-24T15:25:16;24.87;;;8.63;;
12312;SDS011;6220;53.580;9.758;2022-12-24T15:27:43;29.03;;;9.47;;
12312;SDS011;6220;53.580;9.758;2022-12-24T15:30:13;24.87;;;8.03;;
12312;SDS011;6220;53.580;9.758;2022-12-24T15:32:40;23.60;;;9.23;;
12312;SDS011;6220;53.580;9.758;2022-12-24T15:35:06;25.70;;;9.40;;
12312;SDS011;6220;53.580;9.758;2022-12-24T15:37:35;25.40;;;7.77;;
12312;SDS011;6220;53.580;9.758;2022-12-24T15:40:08;34.03;;;9.00;;
12312;SDS011;6220;53.580;9.758;2022-12-24T15:42:40;26.87;;;7.60;;
12312;SDS011;6220;53.580;9.758;2022-12-24T15:47:43;22.67;;;8.20;;
12312;SDS011;6220;53.580;9.758;2022-12-24T15:50:14;23.37;;;7.83;;
12312;SDS011;6220;53.580;9.758;2022-12-24T15:52:41;26.13;;;8.87;;
12312;SDS011;6220;53.580;9.758;2022-12-24T15:55:26;22.47;;;7.93;;
12312;SDS011;6220;53.580;9.758;2022-12-24T15:58:27;27.87;;;8.87;;
12312;SDS011;6220;53.580;9.758;2022-12-24T16:03:40;27.10;;;9.50;;
12312;SDS011;6220;53.580;9.758;2022-12-24T16:06:07;20.07;;;8.73;;
12312;SDS011;6220;53.580;9.758;2022-12-24T16:08:34;25.93;;;9.60;;
12312;SDS011;6220;53.580;9.758;2022-12-24T16:11:16;21.77;;;8.90;;
12312;SDS011;6220;53.580;9.758;2022-12-24T16:14:28;25.40;;;9.83;;
12312;SDS011;6220;53.580;9.758;2022-12-24T16:16:37;28.53;;;16.47;;
12312;SDS011;6220;53.580;9.758;2022-12-24T16:19:04;20.93;;;10.40;;
12312;SDS011;6220;53.580;9.758;2022-12-24T16:21:36;37.40;;;14.90;;
12312;SDS011;6220;53.580;9.758;2022-12-24T16:26:39;28.90;;;11.33;;
12312;SDS011;6220;53.580;9.758;2022-12-24T16:29:05;24.67;;;9.13;;
12312;SDS011;6220;53.580;9.758;2022-12-24T16:31:31;17.20;;;8.40;;
12312;SDS011;6220;53.580;9.758;2022-12-24T16:33:58;23.67;;;9.10;;
12312;SDS011;6220;53.580;9.758;2022-12-24T16:36:25;23.60;;;9.00;;
12312;SDS011;6220;53.580;9.758;2022-12-24T16:38:51;26.20;;;11.43;;
12312;SDS011;6220;53.580;9.758;2022-12-24T16:41:35;33.93;;;13.70;;
12312;SDS011;6220;53.580;9.758;2022-12-24T16:44:21;27.30;;;10.03;;